Time;durP1;ratioP1;P1;durP2;ratioP2;P2;SDS_P1;SDS_P2;PMS_P1;PMS_P2;Temp;Humidity;BMP_temperature;BMP_pressure;BME280_temperature;BME280_humidity;BME280_pressure;Samples;Min_cycle;Max_cycle;Signal;HPM_P1;HPM_P2
2023/09/10 05:21:25;;;;;;;;;;;;;;;;;;5030072;28;19971;-40
2023/09/10 05:23:51;;;;;;;;;;;;;;;;;;5030561;28;19913;-40
2023/09/10 05:26:17;;;;;;;;;;;;;;;;;;5029957;28;19906;-40
2023/09/10 05:28:43;;;;;;;;;;;;;;;;;;5012821;28;19921;-40
2023/09/10 05:31:09;;;;;;;;;;;;;;;;;;5030117;28;19952;-40
2023/09/10 05:33:35;;;;;;;;;;;;;;;;;;5030287;28;20342;-40
2023/09/10 05:36:00;;;;;;;;;;;;;;;;;;5030435;28;19909;-40
2023/09/10 05:38:26;;;;;;;;;;;;;;;;;;5029989;28;19909;-40
2023/09/10 05:40:52;;;;;;;;;;;;;;;;;;5029974;28;20299;-40
2023/09/10 05:43:18;;;;;;;;;;;;;;;;;;5030109;28;20268;-40
2023/09/10 05:45:44;;;;;;;;;;;;;;;;;;5029864;28;19909;-40
2023/09/10 05:48:10;;;;;;;;;;;;;;;;;;5019127;28;20320;-40
2023/09/10 05:50:36;;;;;;;;;;;;;;;;;;5031292;28;20050;-40
2023/09/10 05:53:02;;;;;;;;;;;;;;;;;;5031273;28;19920;-40
2023/09/10 05:55:28;;;;;;;;;;;;;;;;;;5027918;28;19909;-40
2023/09/10 05:57:53;;;;;;;;;;;;;;;;;;5027986;28;19909;-40
2023/09/10 06:00:19;;;;;;;;;;;;;;;;;;5028661;28;20272;-40
2023/09/10 06:02:45;;;;;;;;;;;;;;;;;;5029834;28;19917;-40
2023/09/10 06:05:11;;;;;;;;;;;;;;;;;;5029608;28;19955;-39
2023/09/10 06:07:37;;;;;;;;;;;;;;;;;;5029346;28;19963;-39
2023/09/10 06:10:08;;;;;;;;;;;;;;;;;;5029504;28;19913;-39
2023/09/10 06:12:34;;;;;;;;;;;;;;;;;;5024314;28;19955;-39
2023/09/10 06:15:00;;;;;;;;;;;;;;;;;;5030075;28;20546;-39
2023/09/10 06:17:26;;;;;;;;;;;;;;;;;;5021483;28;19910;-39
2023/09/10 06:19:52;;;;;;;;;;;;;;;;;;5010926;28;20431;-39
2023/09/10 06:22:18;;;;;;;;;;;;;;;;;;5010944;28;19918;-39
2023/09/10 06:24:43;;;;;;;;;;;;;;;;;;5010530;28;19909;-39
2023/09/10 06:27:10;;;;;;;;;;;;;;;;;;5010377;28;19956;-38
2023/09/10 06:29:36;;;;;;;;;;;;;;;;;;5017676;28;19932;-39
2023/09/10 06:32:02;;;;;;;;;;;;;;;;;;5030340;28;19909;-39
2023/09/10 06:34:28;;;;;;;;;;;;;;;;;;5030322;28;20509;-39
2023/09/10 06:36:54;;;;;;;;;;;;;;;;;;5027118;28;19920;-39
2023/09/10 06:39:20;;;;;;;;;;;;;;;;;;5030279;28;19916;-39
2023/09/10 06:41:46;;;;;;;;;;;;;;;;;;5030627;28;19978;-39
2023/09/10 06:44:12;;;;;;;;;;;;;;;;;;5030584;28;19909;-39
2023/09/10 06:46:37;;;;;;;;;;;;;;;;;;5028862;28;19921;-39
2023/09/10 06:49:03;;;;;;;;;;;;;;;;;;5012782;28;20402;-39
2023/09/10 06:51:29;;;;;;;;;;;;;;;;;;5030309;28;19963;-39
2023/09/10 06:53:55;;;;;;;;;;;;;;;;;;5028734;28;19924;-39
2023/09/10 06:56:21;;;;;;;;;;;;;;;;;;5030233;28;19944;-39
2023/09/10 06:58:47;;;;;;;;;;;;;;;;;;5030473;28;19916;-39
2023/09/10 07:01:18;;;;;;;;;;;;;;;;;;5028816;28;20426;-39
2023/09/10 07:03:44;;;;;;;;;;;;;;;;;;5030225;28;20344;-39
2023/09/10 07:06:10;;;;;;;;;;;;;;;;;;5030715;28;19975;-39
2023/09/10 07:08:36;;;;;;;;;;;;;;;;;;5034135;28;19909;-39
2023/09/10 07:11:03;;;;;;;;;;;;;;;;;;5034345;28;19959;-39
2023/09/10 07:13:30;;;;;;;;;;;;;;;;;;5033895;28;20030;-39
2023/09/10 07:15:55;;;;;;;;;;;;;;;;;;5034092;28;20410;-39
2023/09/10 07:18:21;;;;;;;;;;;;;;;;;;5034025;28;19909;-39
2023/09/10 07:20:47;;;;;;;;;;;;;;;;;;5032702;28;19945;-39
2023/09/10 07:23:13;;;;;;;;;;;;;;;;;;5033684;28;19913;-39
2023/09/10 07:25:39;;;;;;;;;;;;;;;;;;5033927;28;20383;-39
2023/09/10 07:28:05;;;;;;;;;;;;;;;;;;5026478;28;20352;-39
2023/09/10 07:30:31;;;;;;;;;;;;;;;;;;5031865;28;20000;-39
2023/09/10 07:32:57;;;;;;;;;;;;;;;;;;5034538;28;19910;-39
2023/09/10 07:35:23;;;;;;;;;;;;;;;;;;5016609;28;19913;-39
2023/09/10 07:37:49;;;;;;;;;;;;;;;;;;5020390;28;20374;-39
2023/09/10 07:40:15;;;;;;;;;;;;;;;;;;5025010;28;19913;-39
2023/09/10 07:42:40;;;;;;;;;;;;;;;;;;5033689;28;20367;-39
2023/09/10 07:45:13;;;;;;;;;;;;;;;;;;5013780;28;20298;-39
2023/09/10 07:47:40;;;;;;;;;;;;;;;;;;5032241;28;19955;-39
2023/09/10 07:50:06;;;;;;;;;;;;;;;;;;5034063;28;19915;-39
2023/09/10 07:52:32;;;;;;;;;;;;;;;;;;5015879;28;19909;-39
2023/09/10 07:54:57;;;;;;;;;;;;;;;;;;5031666;28;19920;-39
2023/09/10 07:57:24;;;;;;;;;;;;;;;;;;5033546;28;19913;-39
2023/09/10 07:59:50;;;;;;;;;;;;;;;;;;5034234;28;20376;-39
2023/09/10 08:02:16;;;;;;;;;;;;;;;;;;5033856;28;19916;-39
2023/09/10 08:04:42;;;;;;;;;;;;;;;;;;5015933;28;19910;-39
2023/09/10 08:07:09;;;;;;;;;;;;;;;;;;5033773;28;19910;-39
2023/09/10 08:09:35;;;;;;;;;;;;;;;;;;5032102;28;19920;-39
2023/09/10 08:12:01;;;;;;;;;;;;;;;;;;5013920;28;20352;-39
2023/09/10 08:14:27;;;;;;;;;;;;;;;;;;5031169;28;19959;-39
2023/09/10 08:16:53;;;;;;;;;;;;;;;;;;5033831;28;19913;-39
2023/09/10 08:19:19;;;;;;;;;;;;;;;;;;5027745;28;20298;-39
2023/09/10 08:21:44;;;;;;;;;;;;;;;;;;5013525;28;20004;-39
2023/09/10 08:24:10;;;;;;;;;;;;;;;;;;5013649;28;19909;-39
2023/09/10 08:26:36;;;;;;;;;;;;;;;;;;5013754;28;19933;-41
2023/09/10 08:29:02;;;;;;;;;;;;;;;;;;5013628;28;19909;-40
2023/09/10 08:31:28;;;;;;;;;;;;;;;;;;5014856;28;20000;-41
2023/09/10 08:33:54;;;;;;;;;;;;;;;;;;5033280;28;20328;-40
2023/09/10 08:36:20;;;;;;;;;;;;;;;;;;5033288;28;19909;-40
2023/09/10 08:38:46;;;;;;;;;;;;;;;;;;5032295;28;20437;-41
2023/09/10 08:41:12;;;;;;;;;;;;;;;;;;5032181;28;19914;-41
2023/09/10 08:43:39;;;;;;;;;;;;;;;;;;5033128;28;19910;-41
2023/09/10 08:46:05;;;;;;;;;;;;;;;;;;5033166;28;19915;-41
2023/09/10 08:48:31;;;;;;;;;;;;;;;;;;5032569;28;20456;-40
2023/09/10 08:50:56;;;;;;;;;;;;;;;;;;5032514;28;20292;-41
2023/09/10 08:53:22;;;;;;;;;;;;;;;;;;5033156;28;19913;-41
2023/09/10 08:55:48;;;;;;;;;;;;;;;;;;5032725;28;19910;-41
2023/09/10 08:58:14;;;;;;;;;;;;;;;;;;5031580;28;19909;-40
2023/09/10 09:00:40;;;;;;;;;;;;;;;;;;5032190;28;19909;-41
2023/09/10 09:03:06;;;;;;;;;;;;;;;;;;5032756;28;20303;-40
2023/09/10 09:05:32;;;;;;;;;;;;;;;;;;5032473;28;19909;-41
2023/09/10 09:07:58;;;;;;;;;;;;;;;;;;5032860;28;19971;-41
2023/09/10 09:10:23;;;;;;;;;;;;;;;;;;5032846;28;19909;-41
2023/09/10 09:12:49;;;;;;;;;;;;;;;;;;5032582;28;19913;-41
2023/09/10 09:15:15;;;;;;;;;;;;;;;;;;5032540;28;20776;-40
2023/09/10 09:17:42;;;;;;;;;;;;;;;;;;5025258;28;19964;-40
2023/09/10 09:20:08;;;;;;;;;;;;;;;;;;5019212;28;19910;-41
2023/09/10 09:22:34;;;;;;;;;;;;;;;;;;5012420;28;19940;-41
2023/09/10 09:25:02;;;;;;;;;;;;;;;;;;5010208;28;20361;-40
2023/09/10 09:27:27;;;;;;;;;;;;;;;;;;5010540;28;20435;-40
2023/09/10 09:29:53;;;;;;;;;;;;;;;;;;5010576;28;19996;-40
2023/09/10 09:32:21;;;;;;;;;;;;;;;;;;5011014;28;19914;-41
2023/09/10 09:34:47;;;;;;;;;;;;;;;;;;5011253;28;20305;-40
2023/09/10 09:37:12;;;;;;;;;;;;;;;;;;5021071;28;19948;-40
2023/09/10 09:39:38;;;;;;;;;;;;;;;;;;5012800;28;19975;-41
2023/09/10 09:42:04;;;;;;;;;;;;;;;;;;5029217;28;20004;-40
2023/09/10 09:44:30;;;;;;;;;;;;;;;;;;5030225;28;20406;-41
2023/09/10 09:46:56;;;;;;;;;;;;;;;;;;5030354;28;19913;-41
2023/09/10 09:49:22;;;;;;;;;;;;;;;;;;5029625;28;20050;-41
2023/09/10 09:51:48;;;;;;;;;;;;;;;;;;5030816;28;20461;-41
2023/09/10 09:54:14;;;;;;;;;;;;;;;;;;5029483;28;19920;-41
2023/09/10 09:56:40;;;;;;;;;;;;;;;;;;5029917;28;19916;-44
2023/09/10 09:59:06;;;;;;;;;;;;;;;;;;5029723;28;19991;-41
2023/09/10 10:01:32;;;;;;;;;;;;;;;;;;5029647;28;19909;-41
2023/09/10 10:03:58;;;;;;;;;;;;;;;;;;5029732;28;19909;-41
2023/09/10 10:06:23;;;;;;;;;;;;;;;;;;5029967;28;19913;-41
2023/09/10 10:08:49;;;;;;;;;;;;;;;;;;5030363;28;19905;-41
2023/09/10 10:11:15;;;;;;;;;;;;;;;;;;5030102;28;19995;-41
2023/09/10 10:13:41;;;;;;;;;;;;;;;;;;5015090;28;20000;-41
2023/09/10 10:16:07;;;;;;;;;;;;;;;;;;5009939;28;19919;-41
2023/09/10 10:18:33;;;;;;;;;;;;;;;;;;5009733;28;19917;-41
2023/09/10 10:20:59;;;;;;;;;;;;;;;;;;4998567;28;19952;-41
2023/09/10 10:23:25;;;;;;;;;;;;;;;;;;5022394;28;19910;-41
2023/09/10 10:25:51;;;;;;;;;;;;;;;;;;5010708;28;19917;-41
2023/09/10 10:28:17;;;;;;;;;;;;;;;;;;5020555;28;19909;-41
2023/09/10 10:30:43;;;;;;;;;;;;;;;;;;5029159;28;19917;-43
2023/09/10 10:33:09;;;;;;;;;;;;;;;;;;5029448;28;19971;-41
2023/09/10 10:35:35;;;;;;;;;;;;;;;;;;5029609;28;19917;-41
2023/09/10 10:38:00;;;;;;;;;;;;;;;;;;5029655;28;19941;-41
2023/09/10 10:40:26;;;;;;;;;;;;;;;;;;5030177;28;19982;-41
2023/09/10 10:42:52;;;;;;;;;;;;;;;;;;5035476;28;19913;-41
2023/09/10 10:45:18;;;;;;;;;;;;;;;;;;5018399;28;19910;-41
2023/09/10 10:47:44;;;;;;;;;;;;;;;;;;5036201;28;19913;-41
2023/09/10 10:50:10;;;;;;;;;;;;;;;;;;5036092;28;20372;-42
2023/09/10 10:52:36;;;;;;;;;;;;;;;;;;5036274;28;20554;-41
2023/09/10 10:55:02;;;;;;;;;;;;;;;;;;5035951;28;19913;-41
2023/09/10 10:57:28;;;;;;;;;;;;;;;;;;5036193;28;19909;-41
2023/09/10 10:59:53;;;;;;;;;;;;;;;;;;5036423;28;19916;-41
2023/09/10 11:02:21;;;;;;;;;;;;;;;;;;5036569;28;19909;-41
2023/09/10 11:04:47;;;;;;;;;;;;;;;;;;5035880;28;20368;-41
2023/09/10 11:07:13;;;;;;;;;;;;;;;;;;5036138;28;19920;-41
2023/09/10 11:09:39;;;;;;;;;;;;;;;;;;5035712;28;19909;-41
2023/09/10 11:12:05;;;;;;;;;;;;;;;;;;5036019;28;19909;-41
2023/09/10 11:14:31;;;;;;;;;;;;;;;;;;5035486;28;19913;-42
2023/09/10 11:16:57;;;;;;;;;;;;;;;;;;5034823;28;19996;-41
2023/09/10 11:19:23;;;;;;;;;;;;;;;;;;5035714;28;20346;-41
2023/09/10 11:21:48;;;;;;;;;;;;;;;;;;5052823;28;20019;-41
2023/09/10 11:24:14;;;;;;;;;;;;;;;;;;5018384;28;20332;-42
2023/09/10 11:26:40;;;;;;;;;;;;;;;;;;5015866;28;19909;-41
2023/09/10 11:29:06;;;;;;;;;;;;;;;;;;5015652;28;20388;-41
2023/09/10 11:31:32;;;;;;;;;;;;;;;;;;5028656;28;19909;-42
2023/09/10 11:34:00;;;;;;;;;;;;;;;;;;5034675;28;19913;-41
2023/09/10 11:36:27;;;;;;;;;;;;;;;;;;5034744;28;19917;-41
2023/09/10 11:38:53;;;;;;;;;;;;;;;;;;5034971;28;20003;-42
2023/09/10 11:41:18;;;;;;;;;;;;;;;;;;5032210;28;19937;-41
2023/09/10 11:43:44;;;;;;;;;;;;;;;;;;5021633;28;19917;-41
2023/09/10 11:46:10;;;;;;;;;;;;;;;;;;5014824;28;19910;-41
2023/09/10 11:48:36;;;;;;;;;;;;;;;;;;5014739;28;20037;-42
2023/09/10 11:51:03;;;;;;;;;;;;;;;;;;5015445;28;20292;-42
2023/09/10 11:53:29;;;;;;;;;;;;;;;;;;5012110;28;20335;-41
2023/09/10 11:55:54;;;;;;;;;;;;;;;;;;5011816;28;19956;-42
2023/09/10 11:58:20;;;;;;;;;;;;;;;;;;5011649;28;20001;-41
2023/09/10 12:00:46;;;;;;;;;;;;;;;;;;5011511;28;19928;-42
2023/09/10 12:03:12;;;;;;;;;;;;;;;;;;5011809;28;19910;-41
2023/09/10 12:05:38;;;;;;;;;;;;;;;;;;5011795;28;19983;-42
2023/09/10 12:08:04;;;;;;;;;;;;;;;;;;5012301;28;20008;-42
2023/09/10 12:10:30;;;;;;;;;;;;;;;;;;5011270;28;19913;-41
2023/09/10 12:13:01;;;;;;;;;;;;;;;;;;5019760;28;20421;-41
2023/09/10 12:15:28;;;;;;;;;;;;;;;;;;5031102;28;20045;-41
2023/09/10 12:17:53;;;;;;;;;;;;;;;;;;5031342;28;20331;-41
2023/09/10 12:20:21;;;;;;;;;;;;;;;;;;5030871;28;19909;-41
2023/09/10 12:22:47;;;;;;;;;;;;;;;;;;5024680;28;19909;-42
2023/09/10 12:25:13;;;;;;;;;;;;;;;;;;5011347;28;20403;-41
2023/09/10 12:27:39;;;;;;;;;;;;;;;;;;5011014;28;19917;-42
2023/09/10 12:30:05;;;;;;;;;;;;;;;;;;5011739;28;20324;-41
2023/09/10 12:32:30;;;;;;;;;;;;;;;;;;5010998;28;20421;-42
2023/09/10 12:34:56;;;;;;;;;;;;;;;;;;5011167;28;19975;-42
2023/09/10 12:37:23;;;;;;;;;;;;;;;;;;5011170;28;19909;-42
2023/09/10 12:39:49;;;;;;;;;;;;;;;;;;5011028;28;19917;-42
2023/09/10 12:42:15;;;;;;;;;;;;;;;;;;5010304;28;19910;-42
2023/09/10 12:44:41;;;;;;;;;;;;;;;;;;5020122;28;20414;-41
2023/09/10 12:47:07;;;;;;;;;;;;;;;;;;5011430;28;19916;-41
2023/09/10 12:49:32;;;;;;;;;;;;;;;;;;5021513;28;19913;-42
2023/09/10 12:51:58;;;;;;;;;;;;;;;;;;5029077;28;19959;-42
2023/09/10 12:54:24;;;;;;;;;;;;;;;;;;5029075;28;20454;-42
2023/09/10 12:56:51;;;;;;;;;;;;;;;;;;5011102;28;19916;-42
2023/09/10 12:59:17;;;;;;;;;;;;;;;;;;5029080;28;19963;-42
2023/09/10 13:01:43;;;;;;;;;;;;;;;;;;5029332;28;19916;-42
2023/09/10 13:04:09;;;;;;;;;;;;;;;;;;5028495;28;19909;-41
2023/09/10 13:06:35;;;;;;;;;;;;;;;;;;5029552;28;19909;-42
2023/09/10 13:09:01;;;;;;;;;;;;;;;;;;5028942;28;19909;-42
2023/09/10 13:11:26;;;;;;;;;;;;;;;;;;5028771;28;19940;-42
2023/09/10 13:13:52;;;;;;;;;;;;;;;;;;5027560;28;19920;-42
2023/09/10 13:16:19;;;;;;;;;;;;;;;;;;5029201;28;20445;-42
2023/09/10 13:18:44;;;;;;;;;;;;;;;;;;5040742;28;19916;-42
2023/09/10 13:21:10;;;;;;;;;;;;;;;;;;5048593;28;19928;-42
2023/09/10 13:23:36;;;;;;;;;;;;;;;;;;5048601;28;19920;-43
2023/09/10 13:26:02;;;;;;;;;;;;;;;;;;5048583;28;19920;-43
2023/09/10 13:28:28;;;;;;;;;;;;;;;;;;5048363;28;20383;-42
2023/09/10 13:30:54;;;;;;;;;;;;;;;;;;5025057;28;19964;-42
2023/09/10 13:33:20;;;;;;;;;;;;;;;;;;5027004;28;20119;-42
2023/09/10 13:35:46;;;;;;;;;;;;;;;;;;5026482;28;19920;-42
2023/09/10 13:38:12;;;;;;;;;;;;;;;;;;5027504;28;19913;-42
2023/09/10 13:40:39;;;;;;;;;;;;;;;;;;5027158;28;19920;-42
2023/09/10 13:43:05;;;;;;;;;;;;;;;;;;5028271;28;19931;-43
2023/09/10 13:45:31;;;;;;;;;;;;;;;;;;5027234;28;20447;-42
2023/09/10 13:47:57;;;;;;;;;;;;;;;;;;5026942;28;19913;-42
2023/09/10 13:50:23;;;;;;;;;;;;;;;;;;5028100;28;20323;-42
2023/09/10 13:52:49;;;;;;;;;;;;;;;;;;5027654;28;19913;-42
2023/09/10 13:55:15;;;;;;;;;;;;;;;;;;5028769;28;19913;-42
2023/09/10 13:57:41;;;;;;;;;;;;;;;;;;5027060;28;20304;-42
2023/09/10 14:00:07;;;;;;;;;;;;;;;;;;5028181;28;19909;-42
2023/09/10 14:02:33;;;;;;;;;;;;;;;;;;5027801;28;19913;-43
2023/09/10 14:04:59;;;;;;;;;;;;;;;;;;5028179;28;19909;-43
2023/09/10 14:07:25;;;;;;;;;;;;;;;;;;5026456;28;20394;-42
2023/09/10 14:09:50;;;;;;;;;;;;;;;;;;5026009;28;19913;-43
2023/09/10 14:12:16;;;;;;;;;;;;;;;;;;5026212;28;19968;-43
2023/09/10 14:14:42;;;;;;;;;;;;;;;;;;5027703;28;19913;-43
2023/09/10 14:17:08;;;;;;;;;;;;;;;;;;5025984;28;20284;-42
2023/09/10 14:19:34;;;;;;;;;;;;;;;;;;5027543;28;20028;-42
2023/09/10 14:22:00;;;;;;;;;;;;;;;;;;5027257;28;20295;-43
2023/09/10 14:24:28;;;;;;;;;;;;;;;;;;5028147;28;19956;-43
2023/09/10 14:26:56;;;;;;;;;;;;;;;;;;5019601;28;20295;-42
2023/09/10 14:29:22;;;;;;;;;;;;;;;;;;5025429;28;19935;-42
2023/09/10 14:31:48;;;;;;;;;;;;;;;;;;5030078;28;19952;-42
2023/09/10 14:34:14;;;;;;;;;;;;;;;;;;5028683;28;19941;-43
2023/09/10 14:36:40;;;;;;;;;;;;;;;;;;5028082;28;20277;-47
2023/09/10 14:39:06;;;;;;;;;;;;;;;;;;5025644;28;19917;-44
2023/09/10 14:41:32;;;;;;;;;;;;;;;;;;5028462;28;20001;-42
2023/09/10 14:43:58;;;;;;;;;;;;;;;;;;5028147;28;20003;-43
2023/09/10 14:46:24;;;;;;;;;;;;;;;;;;5027487;28;20376;-42
2023/09/10 14:48:50;;;;;;;;;;;;;;;;;;5027702;28;19913;-42
2023/09/10 14:51:16;;;;;;;;;;;;;;;;;;5028476;28;20252;-44
2023/09/10 14:53:42;;;;;;;;;;;;;;;;;;5028427;28;19928;-42
2023/09/10 14:56:08;;;;;;;;;;;;;;;;;;5028524;28;19910;-42
2023/09/10 14:58:33;;;;;;;;;;;;;;;;;;5027285;28;19914;-43
2023/09/10 15:00:59;;;;;;;;;;;;;;;;;;5028687;28;19909;-42
2023/09/10 15:03:25;;;;;;;;;;;;;;;;;;5028633;28;19945;-42
2023/09/10 15:05:51;;;;;;;;;;;;;;;;;;5029241;28;19976;-44
2023/09/10 15:08:17;;;;;;;;;;;;;;;;;;5027225;28;19913;-43
2023/09/10 15:10:43;;;;;;;;;;;;;;;;;;5027670;28;19917;-42
2023/09/10 15:13:09;;;;;;;;;;;;;;;;;;5028323;28;19909;-43
2023/09/10 15:15:35;;;;;;;;;;;;;;;;;;5028337;28;20363;-42
2023/09/10 15:18:01;;;;;;;;;;;;;;;;;;5026096;28;19917;-42
2023/09/10 15:20:27;;;;;;;;;;;;;;;;;;5027749;28;19909;-42
2023/09/10 15:22:52;;;;;;;;;;;;;;;;;;5028931;28;19905;-43
2023/09/10 15:25:18;;;;;;;;;;;;;;;;;;5029292;28;19916;-42
2023/09/10 15:27:44;;;;;;;;;;;;;;;;;;5028974;28;19913;-42
2023/09/10 15:30:10;;;;;;;;;;;;;;;;;;5030482;28;19914;-42
2023/09/10 15:32:36;;;;;;;;;;;;;;;;;;5030962;28;19967;-43
2023/09/10 15:35:02;;;;;;;;;;;;;;;;;;5030510;28;20346;-43
2023/09/10 15:37:28;;;;;;;;;;;;;;;;;;5028616;28;19939;-42
2023/09/10 15:39:54;;;;;;;;;;;;;;;;;;5030858;28;20404;-42
2023/09/10 15:42:20;;;;;;;;;;;;;;;;;;5032635;28;20043;-42
2023/09/10 15:44:46;;;;;;;;;;;;;;;;;;5022872;28;20299;-43
2023/09/10 15:47:12;;;;;;;;;;;;;;;;;;5018118;28;19971;-42
2023/09/10 15:49:38;;;;;;;;;;;;;;;;;;5026306;28;19992;-43
2023/09/10 15:52:04;;;;;;;;;;;;;;;;;;5029802;28;19922;-42
2023/09/10 15:54:30;;;;;;;;;;;;;;;;;;5012987;28;19917;-43
2023/09/10 15:56:57;;;;;;;;;;;;;;;;;;5022673;28;20548;-42
2023/09/10 15:59:23;;;;;;;;;;;;;;;;;;5014625;28;19917;-42
2023/09/10 16:01:49;;;;;;;;;;;;;;;;;;5028557;28;19975;-42
2023/09/10 16:04:14;;;;;;;;;;;;;;;;;;5013639;28;19960;-43
2023/09/10 16:06:40;;;;;;;;;;;;;;;;;;5029421;28;19913;-42
2023/09/10 16:09:06;;;;;;;;;;;;;;;;;;5029752;28;19913;-45
2023/09/10 16:11:32;;;;;;;;;;;;;;;;;;5030184;28;19912;-43
2023/09/10 16:13:58;;;;;;;;;;;;;;;;;;5029827;28;19913;-42
2023/09/10 16:16:24;;;;;;;;;;;;;;;;;;5023947;28;19913;-44
2023/09/10 16:18:52;;;;;;;;;;;;;;;;;;5023224;28;19940;-42
2023/09/10 16:21:17;;;;;;;;;;;;;;;;;;5022653;28;20015;-42
2023/09/10 16:23:43;;;;;;;;;;;;;;;;;;5023113;28;19917;-43
2023/09/10 16:26:09;;;;;;;;;;;;;;;;;;5020654;28;20293;-43
2023/09/10 16:28:35;;;;;;;;;;;;;;;;;;5022922;28;20023;-44
2023/09/10 16:31:01;;;;;;;;;;;;;;;;;;5023084;28;19914;-43
2023/09/10 16:33:27;;;;;;;;;;;;;;;;;;5020883;28;19917;-42
2023/09/10 16:35:53;;;;;;;;;;;;;;;;;;5021435;28;19933;-43
2023/09/10 16:38:18;;;;;;;;;;;;;;;;;;5018267;28;19963;-43
2023/09/10 16:40:44;;;;;;;;;;;;;;;;;;5022625;28;19971;-46
2023/09/10 16:43:10;;;;;;;;;;;;;;;;;;5027220;28;19963;-42
2023/09/10 16:45:36;;;;;;;;;;;;;;;;;;5026505;28;19920;-43
2023/09/10 16:48:02;;;;;;;;;;;;;;;;;;5021272;28;19913;-43
2023/09/10 16:50:28;;;;;;;;;;;;;;;;;;5025637;28;19920;-46
2023/09/10 16:52:54;;;;;;;;;;;;;;;;;;5024705;28;19917;-43
2023/09/10 16:55:20;;;;;;;;;;;;;;;;;;5020100;28;20400;-45
2023/09/10 16:57:46;;;;;;;;;;;;;;;;;;5009124;28;19914;-49
2023/09/10 17:00:11;;;;;;;;;;;;;;;;;;5009495;28;19910;-47
2023/09/10 17:02:37;;;;;;;;;;;;;;;;;;5018306;28;19913;-44
2023/09/10 17:05:03;;;;;;;;;;;;;;;;;;5025235;28;20383;-44
2023/09/10 17:07:29;;;;;;;;;;;;;;;;;;5026875;28;19913;-44
2023/09/10 17:09:55;;;;;;;;;;;;;;;;;;5027437;28;20305;-43
2023/09/10 17:12:22;;;;;;;;;;;;;;;;;;5026835;28;19913;-43
2023/09/10 17:14:48;;;;;;;;;;;;;;;;;;5027137;28;19920;-43
2023/09/10 17:17:14;;;;;;;;;;;;;;;;;;5007475;28;19925;-44
2023/09/10 17:19:40;;;;;;;;;;;;;;;;;;5026583;28;19971;-43
2023/09/10 17:22:06;;;;;;;;;;;;;;;;;;5027430;28;19924;-43
2023/09/10 17:24:32;;;;;;;;;;;;;;;;;;5021191;28;19920;-44
2023/09/10 17:26:58;;;;;;;;;;;;;;;;;;5008054;28;19963;-44
2023/09/10 17:29:23;;;;;;;;;;;;;;;;;;5026513;28;19949;-44
2023/09/10 17:31:50;;;;;;;;;;;;;;;;;;5022944;28;19919;-43
2023/09/10 17:34:16;;;;;;;;;;;;;;;;;;5005687;28;19917;-45
2023/09/10 17:36:41;;;;;;;;;;;;;;;;;;5005317;28;19913;-43
2023/09/10 17:39:07;;;;;;;;;;;;;;;;;;5025302;28;20388;-43
2023/09/10 17:41:33;;;;;;;;;;;;;;;;;;5022061;28;19917;-43
2023/09/10 17:44:01;;;;;;;;;;;;;;;;;;5006214;28;20281;-45
2023/09/10 17:46:28;;;;;;;;;;;;;;;;;;5022275;28;19921;-42
2023/09/10 17:48:54;;;;;;;;;;;;;;;;;;5014365;28;19917;-43
2023/09/10 17:51:20;;;;;;;;;;;;;;;;;;5020301;28;19920;-43
2023/09/10 17:53:46;;;;;;;;;;;;;;;;;;5020650;28;20395;-43
2023/09/10 17:56:11;;;;;;;;;;;;;;;;;;5020781;28;19920;-43
2023/09/10 17:58:37;;;;;;;;;;;;;;;;;;5027040;28;19909;-43
2023/09/10 18:01:04;;;;;;;;;;;;;;;;;;5022722;28;19961;-42
2023/09/10 18:03:30;;;;;;;;;;;;;;;;;;5022597;28;19920;-44
2023/09/10 18:05:56;;;;;;;;;;;;;;;;;;5022993;28;19914;-43
2023/09/10 18:08:22;;;;;;;;;;;;;;;;;;5024374;28;19956;-43
2023/09/10 18:10:48;;;;;;;;;;;;;;;;;;5022124;28;19917;-41
2023/09/10 18:13:14;;;;;;;;;;;;;;;;;;5024129;28;19913;-42
2023/09/10 18:15:40;;;;;;;;;;;;;;;;;;5007282;28;19999;-42
2023/09/10 18:18:06;;;;;;;;;;;;;;;;;;5021840;28;19943;-42
2023/09/10 18:20:31;;;;;;;;;;;;;;;;;;5004197;28;19913;-41
2023/09/10 18:22:57;;;;;;;;;;;;;;;;;;5022652;28;19960;-41
2023/09/10 18:25:23;;;;;;;;;;;;;;;;;;5022105;28;19913;-42
2023/09/10 18:27:49;;;;;;;;;;;;;;;;;;5021537;28;19913;-42
2023/09/10 18:30:16;;;;;;;;;;;;;;;;;;5023875;28;20036;-42
2023/09/10 18:32:42;;;;;;;;;;;;;;;;;;5018247;28;19913;-42
2023/09/10 18:35:08;;;;;;;;;;;;;;;;;;5021944;28;20011;-42
2023/09/10 18:37:34;;;;;;;;;;;;;;;;;;5025461;28;20055;-42
2023/09/10 18:40:00;;;;;;;;;;;;;;;;;;5021696;28;19910;-41
2023/09/10 18:42:26;;;;;;;;;;;;;;;;;;5026310;28;19913;-43
2023/09/10 18:44:52;;;;;;;;;;;;;;;;;;5024809;28;20028;-43
2023/09/10 18:47:18;;;;;;;;;;;;;;;;;;5023262;28;19929;-42
2023/09/10 18:49:44;;;;;;;;;;;;;;;;;;5022712;28;19913;-41
2023/09/10 18:52:10;;;;;;;;;;;;;;;;;;5004159;28;19909;-42
2023/09/10 18:54:35;;;;;;;;;;;;;;;;;;5024238;28;19983;-41
2023/09/10 18:57:01;;;;;;;;;;;;;;;;;;5022335;28;19916;-41
2023/09/10 18:59:27;;;;;;;;;;;;;;;;;;5017581;28;19914;-41
2023/09/10 19:01:53;;;;;;;;;;;;;;;;;;5015460;28;19960;-42
2023/09/10 19:04:20;;;;;;;;;;;;;;;;;;5027619;28;19913;-42
2023/09/10 19:06:46;;;;;;;;;;;;;;;;;;5029490;28;20191;-42
2023/09/10 19:09:12;;;;;;;;;;;;;;;;;;5029035;28;19910;-43
2023/09/10 19:11:38;;;;;;;;;;;;;;;;;;5028424;28;19913;-42
2023/09/10 19:14:04;;;;;;;;;;;;;;;;;;5025556;28;19961;-42
2023/09/10 19:16:30;;;;;;;;;;;;;;;;;;5010308;28;19913;-43
2023/09/10 19:18:56;;;;;;;;;;;;;;;;;;5027470;28;19989;-43
2023/09/10 19:21:21;;;;;;;;;;;;;;;;;;5025285;28;19917;-43
2023/09/10 19:23:47;;;;;;;;;;;;;;;;;;5024469;28;19916;-43
2023/09/10 19:26:13;;;;;;;;;;;;;;;;;;5025994;28;20430;-43
2023/09/10 19:28:39;;;;;;;;;;;;;;;;;;5029530;28;19910;-42
2023/09/10 19:31:05;;;;;;;;;;;;;;;;;;5027480;28;20368;-42
2023/09/10 19:33:31;;;;;;;;;;;;;;;;;;5023271;28;19917;-43
2023/09/10 19:35:57;;;;;;;;;;;;;;;;;;5007776;28;19913;-41
2023/09/10 19:38:23;;;;;;;;;;;;;;;;;;5026121;28;19917;-42
2023/09/10 19:40:49;;;;;;;;;;;;;;;;;;5026358;28;19920;-42
2023/09/10 19:43:15;;;;;;;;;;;;;;;;;;5023034;28;19922;-41
2023/09/10 19:45:40;;;;;;;;;;;;;;;;;;5027247;28;19992;-42
2023/09/10 19:48:06;;;;;;;;;;;;;;;;;;5026011;28;20307;-42
2023/09/10 19:50:32;;;;;;;;;;;;;;;;;;5026478;28;19920;-43
2023/09/10 19:52:58;;;;;;;;;;;;;;;;;;5023927;28;19936;-41
2023/09/10 19:55:24;;;;;;;;;;;;;;;;;;5027977;28;19917;-41
2023/09/10 19:57:50;;;;;;;;;;;;;;;;;;5027703;28;19913;-42
2023/09/10 20:00:16;;;;;;;;;;;;;;;;;;5007639;28;20023;-42
2023/09/10 20:02:43;;;;;;;;;;;;;;;;;;5027451;28;19924;-44
2023/09/10 20:05:08;;;;;;;;;;;;;;;;;;5022457;28;20291;-42
2023/09/10 20:07:34;;;;;;;;;;;;;;;;;;5007124;28;19918;-44
2023/09/10 20:10:00;;;;;;;;;;;;;;;;;;5026212;28;19917;-43
2023/09/10 20:12:26;;;;;;;;;;;;;;;;;;5012417;28;19971;-43
2023/09/10 20:14:52;;;;;;;;;;;;;;;;;;5024036;28;20003;-42
2023/09/10 20:17:18;;;;;;;;;;;;;;;;;;5006643;28;20028;-43
2023/09/10 20:19:44;;;;;;;;;;;;;;;;;;5023425;28;19927;-43
2023/09/10 20:22:10;;;;;;;;;;;;;;;;;;5022362;28;19924;-43
2023/09/10 20:24:36;;;;;;;;;;;;;;;;;;5026429;28;20012;-42
2023/09/10 20:27:02;;;;;;;;;;;;;;;;;;5027682;28;19949;-42
2023/09/10 20:29:28;;;;;;;;;;;;;;;;;;5026028;28;19913;-43
2023/09/10 20:31:54;;;;;;;;;;;;;;;;;;5009666;28;19922;-43
2023/09/10 20:34:20;;;;;;;;;;;;;;;;;;5025992;28;19917;-43
2023/09/10 20:36:45;;;;;;;;;;;;;;;;;;5025906;28;19928;-42
2023/09/10 20:39:12;;;;;;;;;;;;;;;;;;5022216;28;19956;-43
2023/09/10 20:41:38;;;;;;;;;;;;;;;;;;5007980;28;19967;-43
2023/09/10 20:44:04;;;;;;;;;;;;;;;;;;5008022;28;19913;-43
2023/09/10 20:46:30;;;;;;;;;;;;;;;;;;5023747;28;19912;-42
2023/09/10 20:48:56;;;;;;;;;;;;;;;;;;5026434;28;19929;-42
2023/09/10 20:51:21;;;;;;;;;;;;;;;;;;5026442;28;19913;-42
2023/09/10 20:53:47;;;;;;;;;;;;;;;;;;5021192;28;19932;-42
2023/09/10 20:56:13;;;;;;;;;;;;;;;;;;5006825;28;19959;-42
2023/09/10 20:58:39;;;;;;;;;;;;;;;;;;5005877;28;19913;-42
2023/09/10 21:01:05;;;;;;;;;;;;;;;;;;5026162;28;19920;-43
2023/09/10 21:03:31;;;;;;;;;;;;;;;;;;5009203;28;19971;-42
2023/09/10 21:05:57;;;;;;;;;;;;;;;;;;5021523;28;19920;-41
2023/09/10 21:08:23;;;;;;;;;;;;;;;;;;5027554;28;19917;-42
2023/09/10 21:10:49;;;;;;;;;;;;;;;;;;5006661;28;19920;-42
2023/09/10 21:13:15;;;;;;;;;;;;;;;;;;5020545;28;19971;-43
2023/09/10 21:15:41;;;;;;;;;;;;;;;;;;5027526;28;19909;-42
2023/09/10 21:18:07;;;;;;;;;;;;;;;;;;5025680;28;19921;-42
2023/09/10 21:20:33;;;;;;;;;;;;;;;;;;5023860;28;20530;-42
2023/09/10 21:22:58;;;;;;;;;;;;;;;;;;5024221;28;19913;-44
2023/09/10 21:25:24;;;;;;;;;;;;;;;;;;5006614;28;19920;-42
2023/09/10 21:27:50;;;;;;;;;;;;;;;;;;5005643;28;19949;-43
2023/09/10 21:30:16;;;;;;;;;;;;;;;;;;5027313;28;19913;-41
2023/09/10 21:32:42;;;;;;;;;;;;;;;;;;5024892;28;20415;-41
2023/09/10 21:35:08;;;;;;;;;;;;;;;;;;5022082;28;19924;-42
2023/09/10 21:37:34;;;;;;;;;;;;;;;;;;5019917;28;19915;-43
2023/09/10 21:40:00;;;;;;;;;;;;;;;;;;5024850;28;20036;-42
2023/09/10 21:42:25;;;;;;;;;;;;;;;;;;5025554;28;19910;-42
2023/09/10 21:44:51;;;;;;;;;;;;;;;;;;5026146;28;20414;-43
2023/09/10 21:47:17;;;;;;;;;;;;;;;;;;5009782;28;20449;-42
2023/09/10 21:49:43;;;;;;;;;;;;;;;;;;5025894;28;19923;-43
2023/09/10 21:52:09;;;;;;;;;;;;;;;;;;5024851;28;19913;-43
2023/09/10 21:54:36;;;;;;;;;;;;;;;;;;5015359;28;19913;-42
2023/09/10 21:57:02;;;;;;;;;;;;;;;;;;5027272;28;19913;-44